Time;durP1;ratioP1;P1;durP2;ratioP2;P2;SDS_P1;SDS_P2;PMS_P1;PMS_P2;Temp;Humidity;BMP_temperature;BMP_pressure;BME280_temperature;BME280_humidity;BME280_pressure;Samples;Min_cycle;Max_cycle;Signal;HPM_P1;HPM_P2
2023/10/27 00:02:14;;;;;;;8.05;3.25;;;11.60;99.90;;;;;;5031560;28;20510;-39
2023/10/27 00:04:41;;;;;;;16.55;3.45;;;11.60;99.90;;;;;;5031178;28;20146;-37
2023/10/27 00:07:08;;;;;;;10.35;3.47;;;11.50;99.90;;;;;;5032074;28;20053;-38
2023/10/27 00:09:37;;;;;;;13.48;3.15;;;11.50;99.90;;;;;;5030042;28;20050;-37
2023/10/27 00:12:05;;;;;;;11.65;3.63;;;11.50;99.90;;;;;;5038458;28;20067;-40
2023/10/27 00:14:33;;;;;;;12.25;3.00;;;11.50;99.90;;;;;;5043665;28;20105;-39
2023/10/27 00:17:00;;;;;;;12.63;3.42;;;11.50;99.90;;;;;;5042472;28;20057;-37
2023/10/27 00:19:27;;;;;;;9.63;3.30;;;11.50;99.90;;;;;;5043173;28;20060;-40
2023/10/27 00:21:54;;;;;;;17.77;3.92;;;11.40;99.90;;;;;;5039914;28;20045;-37
2023/10/27 00:24:21;;;;;;;15.52;3.90;;;11.40;99.90;;;;;;5033092;28;20052;-39
2023/10/27 00:26:48;;;;;;;18.25;4.03;;;11.40;99.90;;;;;;5028864;28;20061;-38
2023/10/27 00:29:15;;;;;;;8.55;3.03;;;11.40;99.90;;;;;;5029322;28;20053;-38
2023/10/27 00:31:42;;;;;;;14.43;3.55;;;11.40;99.90;;;;;;5029086;28;20045;-39
2023/10/27 00:34:09;;;;;;;14.93;4.35;;;11.40;99.90;;;;;;5028170;28;21046;-39
2023/10/27 00:36:36;;;;;;;13.68;3.33;;;11.40;99.90;;;;;;5028184;28;20049;-39
2023/10/27 00:39:03;;;;;;;17.15;3.70;;;11.30;99.90;;;;;;5029470;28;20045;-38
2023/10/27 00:41:30;;;;;;;10.77;3.50;;;11.30;99.90;;;;;;5026061;28;20124;-37
2023/10/27 00:43:58;;;;;;;17.80;3.00;;;11.30;99.90;;;;;;5028427;28;20061;-38
2023/10/27 00:46:25;;;;;;;11.25;3.78;;;11.30;99.90;;;;;;5028071;28;20359;-40
2023/10/27 00:48:54;;;;;;;12.50;3.80;;;11.20;99.90;;;;;;5025636;28;20060;-40
2023/10/27 00:51:22;;;;;;;13.25;3.55;;;11.20;99.90;;;;;;5028138;28;20042;-36
2023/10/27 00:53:52;;;;;;;13.45;4.05;;;11.20;99.90;;;;;;5024368;28;20429;-37
2023/10/27 00:56:19;;;;;;;9.80;3.03;;;11.20;99.90;;;;;;5033575;28;20056;-36
2023/10/27 00:58:47;;;;;;;19.15;3.53;;;11.20;99.90;;;;;;5035684;28;20061;-36
2023/10/27 01:01:17;;;;;;;15.25;4.03;;;11.20;99.90;;;;;;5032818;28;20057;-37
2023/10/27 01:07:32;;;;;;;18.75;3.22;;;11.10;99.90;;;;;;5030607;28;20054;-39
2023/10/27 01:09:59;;;;;;;10.27;3.28;;;11.00;99.90;;;;;;5031738;28;20056;-38
2023/10/27 01:12:26;;;;;;;11.88;2.92;;;10.90;99.90;;;;;;5030642;28;20496;-37
2023/10/27 01:14:53;;;;;;;11.57;3.08;;;10.90;99.90;;;;;;5030424;28;20107;-37
2023/10/27 01:17:20;;;;;;;13.98;3.47;;;10.80;99.90;;;;;;5032526;28;20132;-40
2023/10/27 01:19:48;;;;;;;13.02;3.20;;;10.80;99.90;;;;;;5031696;28;20100;-38
2023/10/27 01:22:15;;;;;;;15.93;3.78;;;10.80;99.90;;;;;;5028504;28;20600;-38
2023/10/27 01:24:42;;;;;;;11.63;2.95;;;10.70;99.90;;;;;;5027966;28;20064;-36
2023/10/27 01:27:10;;;;;;;9.50;3.45;;;10.70;99.90;;;;;;5032596;28;20445;-37
2023/10/27 01:29:37;;;;;;;16.48;3.20;;;10.80;99.90;;;;;;5033547;28;20059;-38
2023/10/27 01:32:04;;;;;;;19.05;3.88;;;10.80;99.90;;;;;;5034804;28;20045;-37
2023/10/27 01:34:31;;;;;;;11.55;3.25;;;10.70;99.90;;;;;;5035466;28;20049;-40
2023/10/27 01:36:58;;;;;;;13.43;3.10;;;10.70;99.90;;;;;;5033788;28;20053;-38
2023/10/27 01:39:25;;;;;;;13.10;3.30;;;10.60;99.90;;;;;;5031813;28;20052;-39
2023/10/27 01:41:52;;;;;;;17.00;3.30;;;10.60;99.90;;;;;;5033217;28;20420;-38
2023/10/27 01:44:19;;;;;;;13.63;3.65;;;10.60;99.90;;;;;;5031593;28;20612;-40
2023/10/27 01:46:46;;;;;;;12.45;3.40;;;10.60;99.90;;;;;;5030665;28;20060;-37
2023/10/27 01:49:13;;;;;;;12.95;3.55;;;10.60;99.90;;;;;;5031798;28;20065;-38
2023/10/27 01:51:40;;;;;;;9.77;3.40;;;10.50;99.90;;;;;;5032529;28;20058;-37
2023/10/27 01:54:07;;;;;;;18.02;3.55;;;10.50;99.90;;;;;;5030566;28;20053;-40
2023/10/27 01:56:34;;;;;;;17.67;3.42;;;10.60;99.90;;;;;;5030996;28;20045;-39
2023/10/27 01:59:02;;;;;;;18.17;3.20;;;10.60;99.90;;;;;;5030572;28;20076;-38
2023/10/27 02:01:29;;;;;;;14.63;3.95;;;10.60;99.90;;;;;;5027377;28;20081;-37
2023/10/27 02:03:56;;;;;;;14.95;3.45;;;10.60;99.90;;;;;;5030084;28;20455;-38
2023/10/27 02:06:24;;;;;;;11.40;3.10;;;10.60;99.90;;;;;;5031104;28;20056;-36
2023/10/27 02:08:52;;;;;;;12.95;3.17;;;10.60;99.90;;;;;;5031946;28;20108;-38
2023/10/27 02:11:20;;;;;;;11.38;3.33;;;10.60;99.90;;;;;;5031093;28;20045;-36
2023/10/27 02:13:49;;;;;;;14.88;3.47;;;10.60;99.90;;;;;;5031843;28;20553;-39
2023/10/27 02:16:16;;;;;;;13.68;3.60;;;10.60;99.90;;;;;;5029805;28;20056;-37
2023/10/27 02:18:43;;;;;;;15.02;3.30;;;10.60;99.90;;;;;;5032059;28;20457;-38
2023/10/27 02:21:10;;;;;;;12.68;3.47;;;10.60;99.90;;;;;;5032133;28;20046;-38
2023/10/27 02:23:37;;;;;;;11.07;3.80;;;10.50;99.90;;;;;;5041192;28;20068;-39
2023/10/27 02:26:04;;;;;;;13.10;3.78;;;10.50;99.90;;;;;;5048634;28;20033;-37
2023/10/27 02:28:31;;;;;;;12.90;3.20;;;10.50;99.90;;;;;;5046799;28;20621;-38
2023/10/27 02:30:58;;;;;;;16.98;3.08;;;10.50;99.90;;;;;;5025114;28;20046;-38
2023/10/27 02:33:25;;;;;;;18.20;3.40;;;10.50;99.90;;;;;;5031714;28;20467;-37
2023/10/27 02:35:52;;;;;;;13.05;3.53;;;10.40;99.90;;;;;;5031752;28;20187;-36
2023/10/27 02:38:19;;;;;;;19.08;3.53;;;10.40;99.90;;;;;;5037106;28;20073;-36
2023/10/27 02:40:46;;;;;;;15.10;3.55;;;10.40;99.90;;;;;;5039382;28;20061;-38
2023/10/27 02:43:13;;;;;;;10.95;3.20;;;10.40;99.90;;;;;;5039082;28;20128;-40
2023/10/27 02:45:41;;;;;;;15.10;3.63;;;10.50;99.90;;;;;;5030549;28;20498;-39
2023/10/27 02:48:08;;;;;;;14.63;3.33;;;10.50;99.90;;;;;;5028586;28;20050;-37
2023/10/27 02:50:35;;;;;;;15.98;3.92;;;10.40;99.90;;;;;;5030549;28;20037;-39
2023/10/27 02:53:02;;;;;;;14.93;3.88;;;10.50;99.90;;;;;;5031563;28;20119;-38
2023/10/27 02:55:29;;;;;;;16.55;3.65;;;10.50;99.90;;;;;;5033633;28;20094;-39
2023/10/27 02:57:56;;;;;;;22.17;3.72;;;10.50;99.90;;;;;;5037467;28;20064;-37
2023/10/27 03:00:23;;;;;;;13.93;3.28;;;10.40;99.90;;;;;;5034362;28;20103;-37
2023/10/27 03:02:50;;;;;;;14.50;3.67;;;10.40;99.90;;;;;;5031529;28;20045;-38
2023/10/27 03:05:17;;;;;;;13.25;3.20;;;10.40;99.90;;;;;;5029313;28;20522;-37
2023/10/27 03:07:44;;;;;;;14.77;3.42;;;10.40;99.90;;;;;;5029891;28;20481;-38
2023/10/27 03:10:11;;;;;;;18.58;3.80;;;10.40;99.90;;;;;;5029717;28;20103;-37
2023/10/27 03:12:39;;;;;;;12.93;3.60;;;10.40;99.90;;;;;;5043844;28;20126;-38
2023/10/27 03:15:06;;;;;;;11.57;3.60;;;10.40;99.90;;;;;;5039082;28;20041;-38
2023/10/27 03:17:33;;;;;;;14.05;3.50;;;10.40;99.90;;;;;;5046666;28;20073;-37
2023/10/27 03:20:00;;;;;;;16.45;4.03;;;10.40;99.90;;;;;;5036248;28;20045;-39
2023/10/27 03:22:28;;;;;;;18.42;3.47;;;10.40;99.90;;;;;;5027597;28;20057;-37
2023/10/27 03:24:56;;;;;;;15.88;4.03;;;10.40;99.90;;;;;;5030582;28;20472;-38
2023/10/27 03:27:24;;;;;;;15.95;4.60;;;10.40;99.90;;;;;;5031156;28;20052;-39
2023/10/27 03:29:51;;;;;;;17.95;3.75;;;10.40;99.90;;;;;;5043031;28;20038;-37
2023/10/27 03:32:19;;;;;;;11.88;3.72;;;10.40;99.90;;;;;;5044328;28;20072;-36
2023/10/27 03:34:46;;;;;;;16.08;3.85;;;10.40;99.90;;;;;;5043497;28;20049;-37
2023/10/27 03:37:13;;;;;;;12.05;4.03;;;10.50;99.90;;;;;;5045980;28;20049;-38
2023/10/27 03:39:40;;;;;;;13.25;3.63;;;10.50;99.90;;;;;;5040673;28;20055;-37
2023/10/27 03:42:07;;;;;;;17.33;3.60;;;10.50;99.90;;;;;;5035150;28;20460;-39
2023/10/27 03:44:36;;;;;;;14.25;3.47;;;10.50;99.90;;;;;;5028798;28;20621;-38
2023/10/27 03:47:04;;;;;;;14.23;3.60;;;10.50;99.90;;;;;;5029549;28;20099;-38
2023/10/27 03:49:31;;;;;;;14.77;3.55;;;10.50;99.90;;;;;;5027258;28;20437;-40
2023/10/27 03:51:59;;;;;;;19.77;4.85;;;10.40;99.90;;;;;;5028820;28;20053;-39
2023/10/27 03:54:27;;;;;;;14.80;3.90;;;10.50;99.90;;;;;;5028001;28;20457;-38
2023/10/27 03:56:55;;;;;;;18.33;4.40;;;10.50;99.90;;;;;;5024899;28;20053;-39
2023/10/27 03:59:22;;;;;;;20.25;4.18;;;10.50;99.90;;;;;;5027776;28;20053;-38
2023/10/27 04:01:49;;;;;;;12.90;3.28;;;10.40;99.90;;;;;;5027999;28;20541;-40
2023/10/27 04:04:16;;;;;;;16.88;3.88;;;10.40;99.90;;;;;;5027408;28;20046;-37
2023/10/27 04:06:44;;;;;;;12.80;4.00;;;10.50;99.90;;;;;;5027148;28;20061;-38
2023/10/27 04:09:11;;;;;;;13.05;3.95;;;10.50;99.90;;;;;;5024322;28;20061;-39
2023/10/27 04:11:38;;;;;;;14.90;3.95;;;10.40;99.90;;;;;;5027411;28;20061;-40
2023/10/27 04:14:05;;;;;;;13.40;3.88;;;10.40;99.90;;;;;;5028494;28;20057;-38
2023/10/27 04:16:32;;;;;;;11.60;3.60;;;10.40;99.90;;;;;;5027710;28;20461;-36
2023/10/27 04:19:00;;;;;;;16.20;3.97;;;10.40;99.90;;;;;;5030415;28;20119;-37
2023/10/27 04:21:28;;;;;;;15.60;4.32;;;10.40;99.90;;;;;;5028388;28;20049;-40
2023/10/27 04:23:56;;;;;;;18.70;4.47;;;10.40;99.90;;;;;;5027741;28;20042;-38
2023/10/27 04:26:23;;;;;;;14.73;4.32;;;10.40;99.90;;;;;;5029986;28;20042;-38
2023/10/27 04:28:50;;;;;;;14.38;3.80;;;10.40;99.90;;;;;;5031082;28;20045;-39
2023/10/27 04:31:17;;;;;;;16.13;4.03;;;10.40;99.90;;;;;;5031206;28;20053;-39
2023/10/27 04:33:47;;;;;;;17.48;3.92;;;10.40;99.90;;;;;;5027686;28;20483;-39
2023/10/27 04:36:15;;;;;;;18.13;3.90;;;10.40;99.90;;;;;;5026973;28;20050;-37
2023/10/27 04:38:42;;;;;;;20.17;4.68;;;10.40;99.90;;;;;;5027196;28;20481;-36
2023/10/27 04:41:10;;;;;;;15.07;4.22;;;10.40;99.90;;;;;;5024774;28;20532;-38
2023/10/27 04:43:37;;;;;;;17.95;4.60;;;10.40;99.90;;;;;;5026510;28;20037;-37
2023/10/27 04:46:04;;;;;;;17.55;5.43;;;10.40;99.90;;;;;;5026268;28;20054;-39
2023/10/27 04:48:31;;;;;;;15.25;4.63;;;10.40;99.90;;;;;;5024639;28;20565;-37
2023/10/27 04:51:04;;;;;;;14.20;4.40;;;10.30;99.90;;;;;;5029657;28;20137;-38
2023/10/27 04:53:31;;;;;;;11.77;4.05;;;10.30;99.90;;;;;;5024800;28;20113;-40
2023/10/27 04:55:58;;;;;;;14.82;4.35;;;10.40;99.90;;;;;;5030666;28;20080;-39
2023/10/27 04:58:25;;;;;;;11.25;3.67;;;10.40;99.90;;;;;;5030148;28;20049;-39
2023/10/27 05:00:52;;;;;;;14.45;3.95;;;10.40;99.90;;;;;;5027781;28;20042;-36
2023/10/27 05:03:19;;;;;;;9.15;3.50;;;10.40;99.90;;;;;;5029304;28;20075;-38
2023/10/27 05:05:46;;;;;;;15.75;4.13;;;10.40;99.90;;;;;;5029931;28;20206;-39
2023/10/27 05:08:13;;;;;;;21.00;5.18;;;10.40;99.90;;;;;;5029821;28;20068;-38
2023/10/27 05:10:41;;;;;;;10.55;4.72;;;10.40;99.90;;;;;;5027104;28;20146;-39
2023/10/27 05:13:09;;;;;;;13.05;4.82;;;10.40;99.90;;;;;;5031944;28;20057;-36
2023/10/27 05:15:38;;;;;;;15.88;5.13;;;10.40;99.90;;;;;;5029454;28;20053;-37
2023/10/27 05:18:05;;;;;;;11.00;4.88;;;10.40;99.90;;;;;;5028946;28;20398;-38
2023/10/27 05:20:37;;;;;;;14.27;4.25;;;10.40;99.90;;;;;;5029323;28;20139;-37
2023/10/27 05:23:04;;;;;;;11.10;4.22;;;10.40;99.90;;;;;;5028756;28;20071;-38
2023/10/27 05:25:31;;;;;;;12.07;3.95;;;10.40;99.90;;;;;;5026229;28;20049;-38
2023/10/27 05:27:58;;;;;;;11.88;3.70;;;10.40;99.90;;;;;;5028408;28;20072;-37
2023/10/27 05:30:25;;;;;;;19.80;4.75;;;10.40;99.90;;;;;;5029606;28;20038;-37
2023/10/27 05:32:52;;;;;;;12.35;3.70;;;10.40;99.90;;;;;;5030219;28;20064;-36
2023/10/27 05:35:19;;;;;;;10.35;4.07;;;10.30;99.90;;;;;;5029213;28;20076;-36
2023/10/27 05:37:46;;;;;;;10.07;4.10;;;10.30;99.90;;;;;;5034076;28;20481;-38
2023/10/27 05:40:14;;;;;;;10.25;3.72;;;10.30;99.90;;;;;;5029214;28;20037;-38
2023/10/27 05:42:42;;;;;;;14.35;4.28;;;10.20;99.90;;;;;;5038789;28;20116;-38
2023/10/27 05:45:13;;;;;;;9.95;3.45;;;10.20;99.90;;;;;;5039102;28;20045;-35
2023/10/27 05:47:41;;;;;;;9.23;3.30;;;10.20;99.90;;;;;;5035872;28;20053;-38
2023/10/27 05:50:09;;;;;;;10.38;3.17;;;10.20;99.90;;;;;;5029689;28;20053;-36
2023/10/27 05:52:36;;;;;;;8.43;3.63;;;10.20;99.90;;;;;;5032068;28;20073;-39
2023/10/27 05:55:04;;;;;;;9.40;3.28;;;10.10;99.90;;;;;;5040598;28;20100;-38
2023/10/27 05:57:32;;;;;;;10.30;4.55;;;10.10;99.90;;;;;;5042162;28;20064;-37
2023/10/27 05:59:59;;;;;;;12.95;4.18;;;10.10;99.90;;;;;;5032629;28;20055;-36
2023/10/27 06:02:27;;;;;;;8.75;3.63;;;10.10;99.90;;;;;;5030295;28;20037;-38
2023/10/27 06:04:54;;;;;;;6.97;2.83;;;10.00;99.90;;;;;;5032295;28;20113;-37
2023/10/27 06:07:21;;;;;;;7.80;3.28;;;10.10;99.90;;;;;;5042404;28;20049;-38
2023/10/27 06:09:49;;;;;;;6.43;2.97;;;10.00;99.90;;;;;;5032012;28;20052;-37
2023/10/27 06:12:16;;;;;;;7.15;3.53;;;10.00;99.90;;;;;;5031935;28;20041;-37
2023/10/27 06:14:46;;;;;;;5.70;2.80;;;10.00;99.90;;;;;;5031324;28;20084;-38
2023/10/27 06:17:13;;;;;;;8.35;3.10;;;10.00;99.90;;;;;;5030795;28;20057;-39
2023/10/27 06:19:40;;;;;;;7.45;3.03;;;10.00;99.90;;;;;;5036159;28;20053;-38
2023/10/27 06:22:09;;;;;;;9.30;3.20;;;10.00;99.90;;;;;;5047312;28;20046;-39
2023/10/27 06:24:36;;;;;;;8.60;3.10;;;10.00;99.90;;;;;;5046547;28;20045;-36
2023/10/27 06:27:03;;;;;;;8.43;2.85;;;10.00;99.90;;;;;;5033697;28;20116;-36
2023/10/27 06:29:30;;;;;;;12.38;3.15;;;10.00;99.90;;;;;;5030247;28;20124;-35
2023/10/27 06:31:57;;;;;;;6.88;2.40;;;10.00;99.90;;;;;;5033143;28;20135;-37
2023/10/27 06:34:24;;;;;;;9.77;3.10;;;10.00;99.90;;;;;;5031288;28;20041;-40
2023/10/27 06:36:51;;;;;;;7.03;2.90;;;10.00;99.90;;;;;;5031921;28;20534;-37
2023/10/27 06:39:23;;;;;;;8.93;3.15;;;10.00;99.90;;;;;;5033291;28;20133;-40
2023/10/27 06:41:50;;;;;;;7.30;2.80;;;9.90;99.90;;;;;;5033144;28;20148;-37
2023/10/27 06:44:17;;;;;;;7.78;3.35;;;10.00;99.90;;;;;;5032071;28;20101;-39
2023/10/27 06:46:45;;;;;;;13.75;6.20;;;10.00;99.90;;;;;;5029032;28;20041;-39
2023/10/27 06:49:13;;;;;;;7.20;3.35;;;10.00;99.90;;;;;;5029454;28;20111;-36
2023/10/27 06:51:41;;;;;;;6.38;2.95;;;10.10;99.90;;;;;;5030965;28;20123;-37
2023/10/27 06:54:07;;;;;;;7.80;2.80;;;10.10;99.90;;;;;;5032300;28;20068;-39
2023/10/27 06:56:34;;;;;;;6.75;2.58;;;10.20;99.90;;;;;;5030794;28;20536;-37
2023/10/27 06:59:02;;;;;;;6.47;3.17;;;10.20;99.90;;;;;;5030532;28;20044;-38
2023/10/27 07:01:29;;;;;;;8.45;2.70;;;10.20;99.90;;;;;;5030744;28;20156;-37
2023/10/27 07:03:56;;;;;;;11.45;3.10;;;10.20;99.90;;;;;;5031031;28;20057;-39
2023/10/27 07:06:25;;;;;;;5.40;2.83;;;10.20;99.90;;;;;;5031524;28;20068;-38
2023/10/27 07:08:52;;;;;;;9.25;2.60;;;10.20;99.90;;;;;;5030962;28;20491;-39
2023/10/27 07:11:19;;;;;;;5.90;2.40;;;10.20;99.90;;;;;;5031309;28;20042;-39
2023/10/27 07:13:46;;;;;;;11.13;3.47;;;10.20;99.90;;;;;;5031608;28;20127;-36
2023/10/27 07:16:13;;;;;;;8.57;2.97;;;10.10;99.90;;;;;;5032031;28;20662;-39
2023/10/27 07:18:40;;;;;;;4.60;2.22;;;10.20;99.90;;;;;;5013697;28;20490;-40
2023/10/27 07:21:11;;;;;;;10.20;2.53;;;10.20;99.90;;;;;;5029144;28;20059;-40
2023/10/27 07:23:38;;;;;;;9.38;3.28;;;10.10;99.90;;;;;;5029019;28;20144;-38
2023/10/27 07:26:13;;;;;;;7.45;3.72;;;10.20;99.90;;;;;;5035389;28;20109;-39
2023/10/27 07:28:41;;;;;;;8.70;3.30;;;10.20;99.90;;;;;;5040340;28;20580;-39
2023/10/27 07:31:09;;;;;;;9.75;3.50;;;10.20;99.90;;;;;;5041333;28;20032;-38
2023/10/27 07:33:39;;;;;;;11.77;3.20;;;10.30;99.90;;;;;;5032015;28;20054;-39
2023/10/27 07:36:07;;;;;;;8.15;3.40;;;10.30;99.90;;;;;;5028621;28;20565;-36
2023/10/27 07:38:34;;;;;;;10.43;3.53;;;10.30;99.90;;;;;;5030152;28;20053;-36
2023/10/27 07:41:03;;;;;;;7.25;3.50;;;10.30;99.90;;;;;;5025334;28;20054;-38
2023/10/27 07:43:31;;;;;;;7.57;3.20;;;10.40;99.90;;;;;;5023446;28;20266;-37
2023/10/27 07:46:00;;;;;;;6.15;2.90;;;10.50;99.90;;;;;;5028777;28;20471;-35
2023/10/27 07:48:27;;;;;;;4.88;2.40;;;10.50;99.90;;;;;;5027995;28;20046;-36
2023/10/27 07:50:56;;;;;;;9.85;3.08;;;10.50;99.90;;;;;;5028701;28;20568;-36
2023/10/27 07:53:28;;;;;;;9.20;2.70;;;10.60;99.90;;;;;;5029926;28;20037;-38
2023/10/27 07:55:56;;;;;;;8.73;2.70;;;10.60;99.90;;;;;;5031534;28;20049;-37
2023/10/27 07:58:25;;;;;;;7.82;3.33;;;10.70;99.90;;;;;;5032821;28;20494;-38
2023/10/27 08:00:52;;;;;;;8.23;3.30;;;10.80;99.90;;;;;;5037648;28;20053;-36
2023/10/27 08:03:23;;;;;;;8.80;3.05;;;10.80;99.90;;;;;;5035155;28;20041;-38
2023/10/27 08:05:50;;;;;;;7.25;2.60;;;10.80;99.90;;;;;;5032450;28;20064;-37
2023/10/27 08:08:17;;;;;;;9.13;3.13;;;10.80;99.90;;;;;;5033478;28;20069;-38
2023/10/27 08:10:46;;;;;;;7.80;2.53;;;10.80;99.90;;;;;;5030230;28;20048;-36
2023/10/27 08:13:16;;;;;;;7.38;2.97;;;10.80;99.90;;;;;;5029453;28;20045;-36
2023/10/27 08:15:46;;;;;;;7.60;3.47;;;10.90;99.90;;;;;;5029852;28;20045;-38
2023/10/27 08:18:13;;;;;;;8.88;2.97;;;10.90;99.90;;;;;;5033102;28;20041;-37
2023/10/27 08:20:40;;;;;;;7.90;3.63;;;10.90;99.90;;;;;;5043846;28;20076;-37
2023/10/27 08:23:07;;;;;;;7.60;3.28;;;10.90;99.90;;;;;;5038227;28;20187;-37
2023/10/27 08:25:34;;;;;;;6.68;3.05;;;10.90;99.90;;;;;;5029519;28;20069;-39
2023/10/27 08:28:03;;;;;;;8.73;3.10;;;11.00;99.90;;;;;;5030412;28;20041;-38
2023/10/27 08:30:30;;;;;;;9.60;3.00;;;11.10;99.90;;;;;;5029524;28;20572;-37
2023/10/27 08:32:57;;;;;;;10.45;3.05;;;11.10;99.90;;;;;;5032835;28;20053;-39
2023/10/27 08:35:24;;;;;;;8.60;3.70;;;11.20;99.90;;;;;;5036900;28;20065;-38
2023/10/27 08:37:51;;;;;;;7.85;2.95;;;11.20;99.90;;;;;;5043836;28;20038;-37
2023/10/27 08:40:19;;;;;;;9.52;3.20;;;11.30;99.90;;;;;;5041997;28;20049;-36
2023/10/27 08:42:47;;;;;;;7.63;2.67;;;11.30;99.90;;;;;;5037554;28;20042;-37
2023/10/27 08:45:15;;;;;;;6.70;2.75;;;11.40;99.90;;;;;;5033330;28;20152;-37
2023/10/27 08:47:42;;;;;;;9.10;3.15;;;11.30;99.90;;;;;;5028464;28;20049;-37
2023/10/27 08:50:10;;;;;;;7.60;2.80;;;11.30;99.90;;;;;;5029108;28;20403;-39
2023/10/27 08:52:39;;;;;;;7.47;3.75;;;11.40;99.90;;;;;;5028012;28;20131;-38
2023/10/27 08:55:08;;;;;;;10.15;2.53;;;11.40;99.90;;;;;;5029475;28;20112;-37
2023/10/27 08:57:36;;;;;;;8.68;3.08;;;11.40;99.90;;;;;;5031152;28;20053;-41
2023/10/27 09:00:06;;;;;;;4.97;2.53;;;11.40;99.90;;;;;;5038376;28;20046;-37
2023/10/27 09:02:34;;;;;;;4.50;2.55;;;11.30;99.90;;;;;;5037916;28;20144;-37
2023/10/27 09:05:03;;;;;;;6.80;2.80;;;11.20;99.90;;;;;;5038793;28;20103;-38
2023/10/27 09:07:35;;;;;;;9.45;2.70;;;11.10;99.90;;;;;;5032707;28;20085;-35
2023/10/27 09:10:07;;;;;;;9.90;2.58;;;11.00;99.90;;;;;;5037225;28;20056;-40
2023/10/27 09:12:39;;;;;;;6.63;2.88;;;11.00;99.90;;;;;;5036943;28;20049;-37
2023/10/27 09:15:08;;;;;;;7.30;2.83;;;11.00;99.90;;;;;;5030642;28;20049;-38
2023/10/27 09:17:57;;;;;;;4.93;2.60;;;11.10;99.90;;;;;;5033993;28;20041;-36
2023/10/27 09:20:25;;;;;;;6.78;2.83;;;11.30;99.90;;;;;;5032572;28;20129;-39
2023/10/27 09:23:00;;;;;;;4.90;2.53;;;11.40;99.90;;;;;;5030969;28;20187;-37
2023/10/27 09:25:30;;;;;;;6.80;2.40;;;11.40;99.90;;;;;;5033253;28;20446;-37
2023/10/27 09:27:58;;;;;;;4.72;1.95;;;11.70;99.90;;;;;;5029899;28;20049;-39
2023/10/27 09:30:27;;;;;;;7.05;2.25;;;11.70;99.90;;;;;;5032345;28;20107;-39
2023/10/27 09:33:09;;;;;;;6.65;2.08;;;11.80;99.90;;;;;;5032933;28;20051;-36
2023/10/27 09:35:36;;;;;;;;;;;11.80;99.90;;;;;;5030794;28;20042;-39
2023/10/27 09:38:06;;;;;;;6.68;2.38;;;12.00;99.90;;;;;;5032908;28;19925;-39
2023/10/27 09:40:35;;;;;;;6.05;2.28;;;12.00;99.90;;;;;;5031879;28;20080;-40
2023/10/27 09:43:04;;;;;;;6.25;2.83;;;12.20;99.90;;;;;;5032190;28;20058;-40
2023/10/27 09:45:37;;;;;;;7.25;2.85;;;12.20;99.90;;;;;;5031662;28;20041;-38
2023/10/27 09:48:06;;;;;;;4.63;2.13;;;12.30;99.90;;;;;;5032021;28;20080;-39
2023/10/27 09:50:33;;;;;;;5.25;2.10;;;12.30;99.90;;;;;;5031868;28;20463;-38
2023/10/27 09:53:01;;;;;;;4.70;1.90;;;12.40;99.90;;;;;;5036640;28;20099;-37
2023/10/27 09:55:29;;;;;;;5.32;2.03;;;12.40;99.90;;;;;;5033669;28;20518;-37
2023/10/27 09:57:58;;;;;;;4.20;1.80;;;12.50;99.90;;;;;;5032388;28;20078;-37
2023/10/27 10:00:29;;;;;;;4.90;1.80;;;12.40;99.90;;;;;;5030490;28;20053;-35
2023/10/27 10:02:58;;;;;;;4.88;1.85;;;12.30;99.90;;;;;;5028598;28;20053;-37
2023/10/27 10:05:26;;;;;;;2.75;1.67;;;12.20;99.90;;;;;;5030637;28;20059;-38
2023/10/27 10:07:56;;;;;;;4.95;2.03;;;12.00;99.90;;;;;;5030804;28;20050;-38
2023/10/27 10:10:35;;;;;;;4.18;1.63;;;11.90;99.90;;;;;;5032736;28;20045;-39
2023/10/27 10:13:04;;;;;;;4.78;2.00;;;11.90;99.90;;;;;;5025010;28;20088;-38
2023/10/27 10:15:36;;;;;;;4.25;1.80;;;11.90;99.90;;;;;;5028271;28;20037;-36
2023/10/27 10:18:27;;;;;;;4.45;1.67;;;12.00;99.90;;;;;;5042996;28;20136;-37
2023/10/27 10:20:59;;;;;;;3.83;1.90;;;12.00;99.90;;;;;;5031620;28;20061;-38
2023/10/27 10:23:39;;;;;;;2.38;1.30;;;11.90;99.90;;;;;;5033089;28;20124;-37
2023/10/27 10:26:06;;;;;;;2.53;1.60;;;11.90;99.90;;;;;;5032139;28;20073;-37
2023/10/27 10:28:34;;;;;;;3.40;1.50;;;11.80;99.90;;;;;;5030850;28;20052;-39
2023/10/27 10:31:07;;;;;;;3.63;1.58;;;11.80;99.90;;;;;;5030088;28;20050;-38
2023/10/27 10:33:35;;;;;;;3.65;1.30;;;12.00;99.90;;;;;;5028357;28;20081;-41
2023/10/27 10:36:24;;;;;;;2.30;1.25;;;12.10;99.90;;;;;;5030103;28;20120;-36
2023/10/27 10:39:00;;;;;;;2.50;1.30;;;12.00;99.90;;;;;;5031939;28;20049;-38
2023/10/27 10:41:52;;;;;;;4.07;1.60;;;12.10;99.90;;;;;;5028666;28;20049;-35
2023/10/27 10:44:19;;;;;;;3.78;1.58;;;12.10;99.90;;;;;;5032115;28;20248;-39
2023/10/27 10:46:46;;;;;;;2.85;1.65;;;12.10;99.90;;;;;;5029376;28;20049;-37
2023/10/27 10:49:27;;;;;;;4.25;1.60;;;12.10;99.90;;;;;;5032663;28;20029;-39
2023/10/27 10:51:58;;;;;;;3.58;1.67;;;12.10;99.90;;;;;;5028720;28;20151;-38
2023/10/27 10:54:32;;;;;;;3.85;1.52;;;12.10;99.90;;;;;;5031825;28;20053;-37
2023/10/27 10:57:00;;;;;;;3.05;1.73;;;12.10;99.90;;;;;;5032213;28;20115;-38
2023/10/27 10:59:27;;;;;;;3.40;1.33;;;12.20;99.90;;;;;;5030290;28;20041;-39
2023/10/27 11:01:57;;;;;;;3.78;1.42;;;12.20;99.90;;;;;;5028912;28;20045;-36
2023/10/27 11:04:33;;;;;;;4.13;1.50;;;12.10;99.90;;;;;;5030260;28;20109;-40
2023/10/27 11:07:07;;;;;;;3.38;1.30;;;12.10;99.90;;;;;;5030308;28;20436;-36
2023/10/27 11:09:35;;;;;;;2.38;1.20;;;12.10;99.90;;;;;;5029898;28;20038;-38
2023/10/27 11:12:03;;;;;;;2.25;1.20;;;12.10;99.90;;;;;;5032130;28;20532;-40
2023/10/27 11:14:39;;;;;;;2.75;1.10;;;12.20;99.90;;;;;;5023964;28;20049;-39
2023/10/27 11:17:11;;;;;;;2.75;1.30;;;12.10;99.90;;;;;;5030608;28;20080;-37
2023/10/27 11:19:54;;;;;;;3.38;1.27;;;12.20;99.90;;;;;;5031282;28;20052;-37
2023/10/27 11:22:25;;;;;;;2.97;1.50;;;12.30;99.90;;;;;;5034451;28;20045;-39
2023/10/27 11:24:53;;;;;;;4.13;1.20;;;12.50;99.90;;;;;;5043226;28;20057;-37
2023/10/27 11:27:24;;;;;;;5.60;1.70;;;12.50;99.90;;;;;;5043424;28;20045;-40
2023/10/27 11:30:00;;;;;;;4.45;1.30;;;12.70;99.90;;;;;;5037853;28;20479;-41
2023/10/27 11:32:27;;;;;;;4.45;1.33;;;12.90;99.90;;;;;;5036670;28;20048;-40
2023/10/27 11:34:55;;;;;;;9.88;1.58;;;12.90;99.90;;;;;;5035707;28;20084;-38
2023/10/27 11:37:22;;;;;;;2.92;1.20;;;13.10;99.90;;;;;;5028641;28;20091;-37
2023/10/27 11:39:50;;;;;;;2.97;1.27;;;13.30;99.90;;;;;;5031346;28;20091;-40
2023/10/27 11:42:17;;;;;;;3.05;1.40;;;13.30;99.90;;;;;;5026072;28;20046;-37
2023/10/27 11:44:45;;;;;;;2.92;1.50;;;13.30;99.90;;;;;;5030383;28;20061;-40
2023/10/27 11:47:12;;;;;;;4.47;1.70;;;13.20;99.90;;;;;;5026794;28;20487;-36
2023/10/27 11:49:39;;;;;;;2.13;1.40;;;13.00;99.90;;;;;;5026672;28;20048;-37
2023/10/27 11:52:06;;;;;;;3.97;1.40;;;12.90;99.90;;;;;;5027052;28;20050;-38
2023/10/27 11:54:33;;;;;;;2.38;1.30;;;12.80;99.90;;;;;;5028552;28;20116;-39
2023/10/27 11:57:02;;;;;;;8.00;1.48;;;12.70;99.90;;;;;;5024045;28;20464;-40
2023/10/27 11:59:29;;;;;;;3.58;1.50;;;12.90;99.90;;;;;;5028904;28;20140;-36
2023/10/27 12:01:57;;;;;;;4.75;1.20;;;13.20;99.90;;;;;;5027841;28;20219;-37
2023/10/27 12:04:24;;;;;;;2.90;1.58;;;13.50;99.90;;;;;;5041020;28;20190;-38
2023/10/27 12:06:53;;;;;;;2.40;1.40;;;13.50;99.90;;;;;;5031164;28;20075;-38
2023/10/27 12:09:22;;;;;;;2.30;1.50;;;13.90;99.90;;;;;;5025768;28;20049;-40
2023/10/27 12:11:49;;;;;;;3.83;1.40;;;14.30;99.90;;;;;;5027190;28;20042;-36
2023/10/27 12:14:17;;;;;;;3.55;1.55;;;14.80;99.90;;;;;;5028496;28;20049;-36
2023/10/27 12:16:44;;;;;;;4.53;1.70;;;14.60;99.90;;;;;;5036171;28;20112;-39
2023/10/27 12:19:13;;;;;;;3.47;1.60;;;14.90;99.90;;;;;;5039902;28;20049;-36
2023/10/27 12:21:41;;;;;;;4.20;2.20;;;14.70;99.90;;;;;;5031337;28;20061;-40
2023/10/27 12:24:09;;;;;;;2.60;1.67;;;15.20;99.90;;;;;;5028587;28;20056;-39
2023/10/27 12:26:36;;;;;;;2.90;1.80;;;15.50;99.90;;;;;;5028793;28;20392;-39
2023/10/27 12:29:04;;;;;;;4.53;2.20;;;15.50;99.90;;;;;;5028898;28;20041;-36
2023/10/27 12:31:34;;;;;;;5.13;2.08;;;15.60;99.90;;;;;;5024808;28;20041;-38
2023/10/27 12:34:03;;;;;;;4.20;2.10;;;15.60;99.90;;;;;;5029047;28;20038;-36
2023/10/27 12:36:30;;;;;;;4.35;2.20;;;16.10;99.90;;;;;;5026925;28;20041;-36
2023/10/27 12:38:57;;;;;;;7.45;3.22;;;17.10;99.90;;;;;;5029000;28;20528;-37
2023/10/27 12:41:24;;;;;;;3.63;2.50;;;17.80;99.90;;;;;;5028688;28;20077;-39
2023/10/27 12:43:51;;;;;;;5.50;2.88;;;18.20;99.90;;;;;;5029016;28;20155;-40
2023/10/27 12:46:18;;;;;;;6.35;2.80;;;18.40;99.90;;;;;;5027368;28;20169;-40
2023/10/27 12:48:48;;;;;;;4.85;2.80;;;18.30;99.90;;;;;;5029816;28;20581;-38
2023/10/27 12:51:16;;;;;;;8.07;2.88;;;17.70;99.90;;;;;;5030078;28;20506;-37
2023/10/27 12:53:43;;;;;;;4.78;2.97;;;17.40;99.90;;;;;;5028168;28;20041;-40